Time;durP1;ratioP1;P1;durP2;ratioP2;P2;SDS_P1;SDS_P2;PMS_P1;PMS_P2;Temp;Humidity;BMP_temperature;BMP_pressure;BME280_temperature;BME280_humidity;BME280_pressure;Samples;Min_cycle;Max_cycle;Signal;HPM_P1;HPM_P2
2022/07/19 00:00:49;;;;;;;2.47;2.27;;;19.00;99.90;;;;;;483450;245;29327;-70
2022/07/19 00:02:50;;;;;;;1.80;1.70;;;18.90;99.90;;;;;;483438;245;28797;-68
2022/07/19 00:04:52;;;;;;;2.20;2.10;;;18.80;99.90;;;;;;483430;245;28806;-69
2022/07/19 00:06:54;;;;;;;1.87;1.77;;;18.70;99.90;;;;;;483397;245;28828;-71
2022/07/19 00:08:54;;;;;;;2.70;2.00;;;18.60;99.90;;;;;;483374;245;28783;-68
2022/07/19 00:10:55;;;;;;;3.17;2.53;;;18.50;99.90;;;;;;483453;245;28814;-69
2022/07/19 00:12:57;;;;;;;2.43;2.30;;;18.50;99.90;;;;;;483444;245;28804;-68
2022/07/19 00:14:58;;;;;;;2.40;2.20;;;18.60;99.90;;;;;;483452;245;28842;-69
2022/07/19 00:16:59;;;;;;;2.13;2.03;;;18.60;99.90;;;;;;483401;246;28830;-73
2022/07/19 00:19:00;;;;;;;2.17;2.07;;;18.70;99.90;;;;;;483436;245;28787;-68
2022/07/19 00:21:02;;;;;;;2.40;2.20;;;18.70;99.90;;;;;;483448;245;29312;-69
2022/07/19 00:23:03;;;;;;;2.17;2.07;;;18.70;99.90;;;;;;483438;245;29318;-68
2022/07/19 00:25:04;;;;;;;2.10;2.00;;;18.70;99.90;;;;;;483432;245;29308;-69
2022/07/19 00:27:05;;;;;;;2.23;2.13;;;18.60;99.90;;;;;;483301;245;29380;-71
2022/07/19 00:29:07;;;;;;;2.10;2.00;;;18.60;99.90;;;;;;483447;245;28784;-68
2022/07/19 00:31:08;;;;;;;2.10;2.00;;;18.60;99.90;;;;;;483424;245;28848;-70
2022/07/19 00:33:09;;;;;;;2.30;2.20;;;18.70;99.90;;;;;;483405;245;28793;-68
2022/07/19 00:35:11;;;;;;;2.23;2.13;;;18.70;99.90;;;;;;483254;245;28887;-69
2022/07/19 00:37:12;;;;;;;2.33;2.23;;;18.70;99.90;;;;;;483395;245;28814;-68
2022/07/19 00:39:13;;;;;;;1.90;1.80;;;18.70;99.90;;;;;;483449;246;28788;-68
2022/07/19 00:41:14;;;;;;;2.50;2.27;;;18.60;99.90;;;;;;483462;245;28814;-70
2022/07/19 00:43:15;;;;;;;2.13;2.03;;;18.60;99.90;;;;;;483454;245;28889;-68
2022/07/19 00:45:17;;;;;;;2.23;2.10;;;18.60;99.90;;;;;;483426;245;29203;-68
2022/07/19 00:47:18;;;;;;;3.43;2.00;;;18.60;99.90;;;;;;483373;245;30148;-69
2022/07/19 00:49:19;;;;;;;2.10;2.00;;;18.50;99.90;;;;;;483449;245;29307;-68
2022/07/19 00:51:20;;;;;;;1.90;1.80;;;18.50;99.90;;;;;;483450;245;29385;-70
2022/07/19 00:53:22;;;;;;;2.03;1.93;;;18.50;99.90;;;;;;483420;245;28808;-68
2022/07/19 00:55:23;;;;;;;1.90;1.80;;;18.40;99.90;;;;;;483330;245;28902;-70
2022/07/19 00:57:24;;;;;;;2.50;2.30;;;18.40;99.90;;;;;;483403;245;28797;-68
2022/07/19 00:59:26;;;;;;;2.10;2.00;;;18.30;99.90;;;;;;483265;245;28888;-69
2022/07/19 01:01:27;;;;;;;2.40;2.30;;;18.30;99.90;;;;;;483388;245;28806;-70
2022/07/19 01:03:28;;;;;;;2.40;2.20;;;18.30;99.90;;;;;;483414;245;28824;-67
2022/07/19 01:05:29;;;;;;;2.20;2.00;;;18.30;99.90;;;;;;483441;245;28838;-68
2022/07/19 01:07:31;;;;;;;2.10;2.00;;;18.30;99.90;;;;;;483392;245;28883;-68
2022/07/19 01:09:32;;;;;;;2.20;2.10;;;18.20;99.90;;;;;;483396;245;28794;-69
2022/07/19 01:11:33;;;;;;;2.20;2.10;;;18.20;99.90;;;;;;483449;245;29286;-72
2022/07/19 01:13:34;;;;;;;2.30;2.10;;;18.20;99.90;;;;;;483421;245;29254;-68
2022/07/19 01:15:36;;;;;;;2.00;1.90;;;18.00;99.90;;;;;;483441;245;29290;-69
2022/07/19 01:17:37;;;;;;;2.10;2.00;;;18.00;99.90;;;;;;483352;245;28850;-68
2022/07/19 01:19:38;;;;;;;2.50;2.40;;;17.90;99.90;;;;;;483442;245;28933;-69
2022/07/19 01:21:39;;;;;;;2.40;2.30;;;17.90;99.90;;;;;;483439;245;28896;-71
2022/07/19 01:23:41;;;;;;;2.17;2.07;;;17.90;99.90;;;;;;483442;245;28899;-68
2022/07/19 01:25:42;;;;;;;2.23;2.13;;;17.90;99.90;;;;;;483449;245;28911;-68
2022/07/19 01:27:43;;;;;;;2.30;2.20;;;17.90;99.90;;;;;;483367;245;28869;-68
2022/07/19 01:29:44;;;;;;;2.47;2.27;;;17.90;99.90;;;;;;483412;246;28776;-69
2022/07/19 01:31:46;;;;;;;2.80;2.60;;;17.90;99.90;;;;;;483450;245;28895;-72
2022/07/19 01:33:47;;;;;;;2.47;2.37;;;17.90;99.90;;;;;;483464;245;29369;-68
2022/07/19 01:35:48;;;;;;;2.50;2.40;;;17.80;99.90;;;;;;483244;245;29198;-69
2022/07/19 01:37:49;;;;;;;2.67;2.47;;;17.80;99.90;;;;;;483429;245;29245;-68
2022/07/19 01:39:51;;;;;;;2.53;2.43;;;17.70;99.90;;;;;;483350;245;28798;-68
2022/07/19 01:41:52;;;;;;;2.30;2.20;;;17.70;99.90;;;;;;483472;245;28794;-71
2022/07/19 01:43:53;;;;;;;2.70;2.50;;;17.70;99.90;;;;;;483454;245;28786;-67
2022/07/19 01:45:54;;;;;;;2.47;2.37;;;17.70;99.90;;;;;;483417;245;28811;-69
2022/07/19 01:47:56;;;;;;;2.40;2.20;;;17.70;99.90;;;;;;483350;245;28782;-67
2022/07/19 01:49:57;;;;;;;2.40;2.30;;;17.70;99.90;;;;;;483413;245;28945;-69
2022/07/19 01:51:58;;;;;;;2.60;2.40;;;17.70;99.90;;;;;;483475;245;28844;-72
2022/07/19 01:53:59;;;;;;;2.33;2.13;;;17.70;99.90;;;;;;483451;245;28921;-68
2022/07/19 01:56:01;;;;;;;2.60;2.23;;;17.70;99.90;;;;;;483432;245;28901;-70
2022/07/19 01:58:02;;;;;;;2.10;2.00;;;17.70;99.90;;;;;;483413;245;29324;-68
2022/07/19 02:00:03;;;;;;;2.43;2.33;;;17.70;99.90;;;;;;483434;245;29363;-69
2022/07/19 02:02:04;;;;;;;2.60;2.40;;;17.70;99.90;;;;;;483463;245;29478;-73
2022/07/19 02:04:06;;;;;;;2.20;2.10;;;17.70;99.90;;;;;;483463;245;29353;-69
2022/07/19 02:06:07;;;;;;;2.37;2.17;;;17.70;99.90;;;;;;483317;246;28874;-74
2022/07/19 02:08:08;;;;;;;2.27;2.17;;;17.70;99.90;;;;;;483466;245;28826;-68
2022/07/19 02:10:09;;;;;;;2.60;2.40;;;17.60;99.90;;;;;;483451;245;28803;-70
2022/07/19 02:12:11;;;;;;;2.23;2.13;;;17.50;99.90;;;;;;483472;245;28878;-68
2022/07/19 02:14:12;;;;;;;2.77;2.57;;;17.50;99.90;;;;;;483435;245;28790;-68
2022/07/19 02:16:13;;;;;;;2.30;2.20;;;17.40;99.90;;;;;;483313;245;28883;-69
2022/07/19 02:18:14;;;;;;;2.60;2.40;;;17.30;99.90;;;;;;483462;245;28778;-69
2022/07/19 02:20:16;;;;;;;2.50;2.40;;;17.30;99.90;;;;;;483459;245;28942;-69
2022/07/19 02:22:17;;;;;;;3.90;2.10;;;17.30;99.90;;;;;;483469;245;28830;-73
2022/07/19 02:24:18;;;;;;;2.30;2.20;;;17.30;99.90;;;;;;483460;245;29306;-68
2022/07/19 02:26:19;;;;;;;2.10;2.00;;;17.30;99.90;;;;;;483406;245;29295;-69
2022/07/19 02:28:21;;;;;;;2.40;2.20;;;17.30;99.90;;;;;;483456;245;29248;-69
2022/07/19 02:30:22;;;;;;;2.37;2.27;;;17.30;99.90;;;;;;483443;245;28816;-69
2022/07/19 02:32:23;;;;;;;2.73;2.53;;;17.30;99.90;;;;;;483458;245;28806;-71
2022/07/19 02:34:24;;;;;;;2.73;2.53;;;17.20;99.90;;;;;;483350;245;28926;-68
2022/07/19 02:36:26;;;;;;;2.50;2.40;;;17.20;99.90;;;;;;483382;245;29479;-70
2022/07/19 02:38:27;;;;;;;3.00;2.80;;;17.00;99.90;;;;;;483454;246;28778;-68
2022/07/19 02:40:28;;;;;;;2.40;2.30;;;17.00;99.90;;;;;;483458;245;28854;-69
2022/07/19 02:42:29;;;;;;;2.93;2.73;;;17.00;99.90;;;;;;483474;245;28839;-72
2022/07/19 02:44:31;;;;;;;3.00;2.80;;;17.00;99.90;;;;;;483474;245;28772;-68
2022/07/19 02:46:32;;;;;;;2.50;2.40;;;17.00;99.90;;;;;;483399;245;28840;-68
2022/07/19 02:48:33;;;;;;;2.57;2.47;;;17.10;99.90;;;;;;483453;245;29279;-68
2022/07/19 02:50:34;;;;;;;2.30;2.20;;;17.10;99.90;;;;;;483433;245;29277;-68
2022/07/19 02:52:36;;;;;;;2.30;2.10;;;17.10;99.90;;;;;;483433;245;29296;-72
2022/07/19 02:54:37;;;;;;;2.27;2.17;;;17.10;99.90;;;;;;483388;245;28801;-67
2022/07/19 02:56:38;;;;;;;2.30;2.20;;;17.00;99.90;;;;;;483416;245;28898;-69
2022/07/19 02:58:39;;;;;;;2.43;2.30;;;17.00;99.90;;;;;;483454;246;28862;-67
2022/07/19 03:00:41;;;;;;;2.57;2.33;;;17.00;99.90;;;;;;483431;245;28866;-68
2022/07/19 03:02:42;;;;;;;2.60;2.40;;;17.00;99.90;;;;;;483448;245;28808;-72
2022/07/19 03:04:43;;;;;;;2.63;2.53;;;17.00;99.90;;;;;;483454;245;28788;-68
2022/07/19 03:06:44;;;;;;;2.83;2.20;;;16.90;99.90;;;;;;483387;245;29001;-69
2022/07/19 03:08:46;;;;;;;2.57;2.37;;;16.90;99.90;;;;;;483292;246;28773;-67
2022/07/19 03:10:47;;;;;;;2.80;2.60;;;16.90;99.90;;;;;;483301;245;28803;-68
2022/07/19 03:12:48;;;;;;;2.80;2.30;;;16.80;99.90;;;;;;483325;245;29298;-71
2022/07/19 03:14:49;;;;;;;2.20;2.10;;;16.80;99.90;;;;;;483380;245;29246;-68
2022/07/19 03:16:51;;;;;;;2.87;2.67;;;16.80;99.90;;;;;;483425;245;29379;-70
2022/07/19 03:18:52;;;;;;;2.53;2.43;;;16.80;99.90;;;;;;483456;245;29326;-68
2022/07/19 03:20:55;;;;;;;2.17;2.07;;;16.80;99.90;;;;;;483460;245;28869;-68
2022/07/19 03:22:54;;;;;;;2.50;2.40;;;16.80;99.90;;;;;;483374;246;28804;-71
2022/07/19 03:24:56;;;;;;;2.20;2.10;;;16.70;99.90;;;;;;483426;246;28904;-68
2022/07/19 03:26:57;;;;;;;2.30;2.20;;;16.70;99.90;;;;;;483210;245;28838;-68
2022/07/19 03:28:58;;;;;;;2.20;2.10;;;16.70;99.90;;;;;;483431;245;28810;-68
2022/07/19 03:30:59;;;;;;;2.13;2.03;;;16.70;99.90;;;;;;483429;246;28877;-68
2022/07/19 03:33:01;;;;;;;2.40;2.30;;;16.70;99.90;;;;;;483426;245;28922;-72
2022/07/19 03:35:02;;;;;;;2.40;2.30;;;16.70;99.90;;;;;;483339;245;28869;-68
2022/07/19 03:37:03;;;;;;;2.43;2.33;;;16.80;99.90;;;;;;483265;245;28842;-69
2022/07/19 03:39:04;;;;;;;2.20;2.10;;;16.70;99.90;;;;;;483448;245;29373;-67
2022/07/19 03:41:06;;;;;;;2.67;2.47;;;16.70;99.90;;;;;;483438;245;29336;-69
2022/07/19 03:43:07;;;;;;;2.70;2.50;;;16.70;99.90;;;;;;483453;245;29496;-70
2022/07/19 03:45:08;;;;;;;2.43;2.23;;;16.70;99.90;;;;;;483408;245;28816;-67
2022/07/19 03:47:09;;;;;;;2.70;2.50;;;16.70;99.90;;;;;;483248;246;28877;-69
2022/07/19 03:49:11;;;;;;;2.50;2.40;;;16.70;99.90;;;;;;483460;245;28772;-68
2022/07/19 03:51:12;;;;;;;2.50;2.30;;;16.70;99.90;;;;;;483439;245;28878;-69
2022/07/19 03:53:13;;;;;;;4.30;2.10;;;16.60;99.90;;;;;;483450;245;28925;-68
2022/07/19 03:55:14;;;;;;;2.60;2.23;;;16.60;99.90;;;;;;483421;245;28804;-68
2022/07/19 03:57:16;;;;;;;2.10;2.00;;;16.50;99.90;;;;;;483293;245;28835;-69
2022/07/19 03:59:17;;;;;;;4.97;2.10;;;16.60;99.90;;;;;;483428;245;28780;-68
2022/07/19 04:01:18;;;;;;;2.30;2.20;;;16.50;99.90;;;;;;483450;245;28817;-68
2022/07/19 04:03:19;;;;;;;2.60;2.40;;;16.50;99.90;;;;;;483447;245;29860;-72
2022/07/19 04:05:21;;;;;;;2.43;2.33;;;16.50;99.90;;;;;;483451;245;29345;-69
2022/07/19 04:07:22;;;;;;;2.80;2.60;;;16.40;99.90;;;;;;483294;245;29368;-70
2022/07/19 04:09:23;;;;;;;2.80;2.60;;;16.40;99.90;;;;;;483442;245;28796;-68
2022/07/19 04:11:24;;;;;;;2.93;2.37;;;16.50;99.90;;;;;;483447;245;28872;-68
2022/07/19 04:13:26;;;;;;;2.63;2.43;;;16.40;99.90;;;;;;483455;245;28838;-71
2022/07/19 04:15:27;;;;;;;3.20;2.90;;;16.30;99.90;;;;;;483459;246;28789;-67
2022/07/19 04:17:28;;;;;;;2.63;2.47;;;16.30;99.90;;;;;;483234;245;28895;-69
2022/07/19 04:19:29;;;;;;;2.97;2.77;;;16.30;99.90;;;;;;483445;245;28788;-68
2022/07/19 04:21:31;;;;;;;3.03;2.83;;;16.30;99.90;;;;;;483451;245;28816;-68
2022/07/19 04:23:32;;;;;;;2.73;2.53;;;16.40;99.90;;;;;;483463;245;28839;-72
2022/07/19 04:25:33;;;;;;;2.97;2.77;;;16.50;99.90;;;;;;483454;245;28797;-68
2022/07/19 04:27:34;;;;;;;2.80;2.60;;;16.60;99.90;;;;;;483285;245;29286;-69
2022/07/19 04:29:36;;;;;;;3.03;2.60;;;16.70;99.90;;;;;;483480;245;29223;-68
2022/07/19 04:31:37;;;;;;;3.00;2.80;;;16.80;99.90;;;;;;483461;245;29302;-68
2022/07/19 04:33:38;;;;;;;2.60;2.50;;;16.90;99.90;;;;;;483462;245;29430;-68
2022/07/19 04:35:39;;;;;;;3.43;3.23;;;17.00;99.90;;;;;;483311;245;28789;-68
2022/07/19 04:37:41;;;;;;;2.83;2.63;;;17.00;99.90;;;;;;483259;245;28891;-70
2022/07/19 04:39:42;;;;;;;2.93;2.73;;;17.00;99.90;;;;;;483466;245;28890;-67
2022/07/19 04:41:43;;;;;;;3.03;2.83;;;17.00;99.90;;;;;;483419;245;28824;-69
2022/07/19 04:43:44;;;;;;;3.27;2.77;;;17.00;99.90;;;;;;483453;245;28849;-67
2022/07/19 04:45:46;;;;;;;3.00;2.80;;;17.00;99.90;;;;;;483461;246;28879;-70
2022/07/19 04:47:47;;;;;;;2.83;2.63;;;17.00;99.90;;;;;;483394;245;28827;-69
2022/07/19 04:49:48;;;;;;;2.83;2.53;;;17.10;99.90;;;;;;483452;245;28930;-67
2022/07/19 04:51:50;;;;;;;2.80;2.60;;;17.10;99.90;;;;;;483439;245;28815;-68
2022/07/19 04:53:51;;;;;;;2.60;2.50;;;17.10;99.90;;;;;;483164;245;29742;-68
2022/07/19 04:55:52;;;;;;;2.13;2.03;;;17.10;99.90;;;;;;483454;245;29255;-68
2022/07/19 04:57:53;;;;;;;2.57;2.40;;;17.20;99.90;;;;;;483385;245;29282;-69
2022/07/19 04:59:54;;;;;;;2.70;2.50;;;17.20;99.90;;;;;;483439;245;28769;-67
2022/07/19 05:01:56;;;;;;;2.60;2.50;;;17.20;99.90;;;;;;483429;245;28803;-68
2022/07/19 05:03:57;;;;;;;2.40;2.30;;;17.30;99.90;;;;;;483432;245;28791;-68
2022/07/19 05:05:58;;;;;;;2.83;2.63;;;17.20;99.90;;;;;;483442;245;28905;-67
2022/07/19 05:07:59;;;;;;;2.20;2.10;;;17.30;99.90;;;;;;483411;245;28806;-69
2022/07/19 05:10:01;;;;;;;2.30;2.20;;;17.30;99.90;;;;;;483465;245;28883;-68
2022/07/19 05:12:05;;;;;;;2.20;2.10;;;17.40;99.90;;;;;;483460;245;28722;-68
2022/07/19 05:14:03;;;;;;;2.57;2.37;;;17.40;99.90;;;;;;483284;246;28797;-71
2022/07/19 05:16:05;;;;;;;2.50;2.40;;;17.40;99.90;;;;;;483421;245;28742;-68
2022/07/19 05:18:06;;;;;;;2.70;2.50;;;17.50;99.90;;;;;;483457;246;29290;-70
2022/07/19 05:20:07;;;;;;;2.80;2.60;;;17.60;99.90;;;;;;483464;245;29135;-67
2022/07/19 05:22:08;;;;;;;2.43;2.33;;;17.60;99.90;;;;;;483451;246;29392;-67
2022/07/19 05:24:10;;;;;;;2.60;2.50;;;17.70;99.90;;;;;;483462;245;29254;-68
2022/07/19 05:26:11;;;;;;;2.53;2.37;;;17.70;99.90;;;;;;483399;246;28791;-67
2022/07/19 05:28:12;;;;;;;2.60;2.50;;;17.80;99.90;;;;;;483472;245;28722;-70
2022/07/19 05:30:13;;;;;;;2.20;2.10;;;17.80;99.90;;;;;;483462;245;28778;-69
2022/07/19 05:32:15;;;;;;;3.13;2.83;;;17.80;99.90;;;;;;483443;245;28798;-68
2022/07/19 05:34:16;;;;;;;2.60;2.50;;;17.90;99.90;;;;;;483401;245;28823;-67
2022/07/19 05:36:17;;;;;;;2.53;2.33;;;17.90;99.90;;;;;;483365;246;28765;-68
2022/07/19 05:38:18;;;;;;;2.77;2.40;;;17.90;99.90;;;;;;483408;246;28831;-70
2022/07/19 05:40:20;;;;;;;2.53;2.33;;;18.00;99.90;;;;;;483466;245;28727;-68
2022/07/19 05:42:21;;;;;;;2.87;2.67;;;18.00;99.90;;;;;;483470;245;29309;-68
2022/07/19 05:44:22;;;;;;;2.73;2.53;;;18.10;99.90;;;;;;483471;245;29880;-67
2022/07/19 05:46:23;;;;;;;2.20;2.10;;;18.20;99.90;;;;;;483419;245;29357;-69
2022/07/19 05:48:25;;;;;;;2.70;2.50;;;18.20;99.90;;;;;;483493;245;29274;-69
2022/07/19 05:50:26;;;;;;;2.80;2.60;;;18.30;99.90;;;;;;483487;245;28766;-68
2022/07/19 05:52:27;;;;;;;2.13;2.03;;;18.30;99.90;;;;;;483475;245;28906;-69
2022/07/19 05:54:28;;;;;;;2.97;2.77;;;18.40;99.90;;;;;;483486;245;28829;-68
2022/07/19 05:56:30;;;;;;;2.57;2.47;;;18.40;99.90;;;;;;483387;245;28870;-68
2022/07/19 05:58:31;;;;;;;2.40;2.30;;;18.50;99.90;;;;;;483443;246;28803;-69
2022/07/19 06:00:32;;;;;;;2.50;2.30;;;18.60;99.90;;;;;;483465;245;28777;-68
2022/07/19 06:02:33;;;;;;;2.10;2.00;;;18.60;99.90;;;;;;483441;245;28927;-69
2022/07/19 06:04:35;;;;;;;2.10;2.00;;;18.60;99.90;;;;;;483413;245;28725;-71
2022/07/19 06:06:36;;;;;;;2.37;2.27;;;18.70;99.90;;;;;;483417;245;28845;-68
2022/07/19 06:08:37;;;;;;;2.33;2.20;;;18.90;99.90;;;;;;483470;245;29359;-70
2022/07/19 06:10:38;;;;;;;1.93;1.83;;;19.00;99.90;;;;;;483399;245;29293;-68
2022/07/19 06:12:40;;;;;;;2.40;2.20;;;19.10;99.90;;;;;;483461;245;29313;-70
2022/07/19 06:14:41;;;;;;;2.60;2.40;;;19.20;99.90;;;;;;483432;245;28821;-71
2022/07/19 06:16:42;;;;;;;2.40;2.30;;;19.20;99.90;;;;;;483396;245;28886;-69
2022/07/19 06:18:43;;;;;;;2.40;2.30;;;19.20;99.90;;;;;;483462;246;28818;-69
2022/07/19 06:20:45;;;;;;;2.40;2.30;;;19.40;99.90;;;;;;483453;245;28786;-69
2022/07/19 06:22:46;;;;;;;2.20;2.10;;;19.40;99.90;;;;;;483468;244;28805;-69
2022/07/19 06:24:47;;;;;;;2.53;2.37;;;19.60;99.90;;;;;;483464;245;28718;-73
2022/07/19 06:26:48;;;;;;;2.50;2.40;;;19.70;99.90;;;;;;483401;245;28830;-69
2022/07/19 06:28:50;;;;;;;2.30;2.20;;;19.70;99.90;;;;;;483439;245;28790;-69
2022/07/19 06:30:51;;;;;;;2.37;2.27;;;19.80;99.90;;;;;;483450;245;28775;-69
2022/07/19 06:32:52;;;;;;;5.20;2.40;;;19.90;99.90;;;;;;483458;245;29285;-69
2022/07/19 06:34:53;;;;;;;2.47;2.37;;;20.00;99.90;;;;;;483347;245;29398;-73
2022/07/19 06:36:55;;;;;;;2.53;2.40;;;20.10;99.90;;;;;;483389;245;29295;-69
2022/07/19 06:38:56;;;;;;;2.70;2.50;;;20.30;99.90;;;;;;483432;245;28918;-71
2022/07/19 06:40:57;;;;;;;2.20;2.10;;;20.40;99.90;;;;;;483455;245;28816;-70
2022/07/19 06:42:58;;;;;;;2.27;2.17;;;20.50;99.90;;;;;;483455;245;28866;-69
2022/07/19 06:45:01;;;;;;;2.67;2.53;;;20.60;99.90;;;;;;483464;245;28923;-72
2022/07/19 06:47:01;;;;;;;2.70;2.50;;;20.80;99.90;;;;;;483276;246;28810;-69
2022/07/19 06:49:02;;;;;;;2.50;2.40;;;21.20;99.90;;;;;;483449;245;28870;-70
2022/07/19 06:51:03;;;;;;;2.43;2.33;;;21.80;99.90;;;;;;483460;245;28787;-68
2022/07/19 06:53:05;;;;;;;3.20;2.60;;;22.40;99.90;;;;;;483449;246;28793;-69
2022/07/19 06:55:06;;;;;;;2.70;2.50;;;23.20;99.90;;;;;;483447;245;29160;-73
2022/07/19 06:57:08;;;;;;;3.10;2.90;;;23.50;99.90;;;;;;483387;245;29259;-69
2022/07/19 06:59:08;;;;;;;3.00;2.83;;;23.70;99.90;;;;;;483430;245;29419;-71
2022/07/19 07:01:10;;;;;;;3.10;2.90;;;24.00;98.80;;;;;;483451;246;29302;-70
2022/07/19 07:03:11;;;;;;;3.60;3.03;;;24.20;98.40;;;;;;483444;245;29272;-69
2022/07/19 07:05:12;;;;;;;3.00;2.80;;;24.30;98.00;;;;;;483453;245;28896;-69
2022/07/19 07:07:13;;;;;;;3.07;2.77;;;24.70;97.60;;;;;;483414;245;28787;-69
2022/07/19 07:09:15;;;;;;;2.90;2.70;;;24.80;97.00;;;;;;483435;245;28814;-71
2022/07/19 07:11:16;;;;;;;3.07;2.87;;;24.60;97.50;;;;;;483467;245;28773;-69
2022/07/19 07:13:17;;;;;;;2.97;2.77;;;24.80;96.10;;;;;;483456;245;28842;-69
2022/07/19 07:15:18;;;;;;;2.90;2.70;;;24.80;96.60;;;;;;483450;245;28865;-69
2022/07/19 07:17:20;;;;;;;2.93;2.60;;;24.70;96.60;;;;;;483378;246;28787;-69
2022/07/19 07:19:21;;;;;;;3.10;2.90;;;24.90;95.70;;;;;;483430;245;29206;-71
2022/07/19 07:21:22;;;;;;;2.57;2.37;;;25.00;95.50;;;;;;483421;245;29260;-69
2022/07/19 07:23:24;;;;;;;2.80;2.60;;;24.70;96.40;;;;;;483406;245;29267;-69
2022/07/19 07:25:25;;;;;;;3.07;2.80;;;25.30;95.20;;;;;;483438;245;30158;-69
2022/07/19 07:27:26;;;;;;;2.70;2.50;;;25.00;95.50;;;;;;483397;245;29244;-69
2022/07/19 07:29:27;;;;;;;4.70;2.83;;;25.10;95.30;;;;;;483385;245;28811;-70
2022/07/19 07:31:28;;;;;;;2.57;2.37;;;25.10;94.70;;;;;;483449;245;28821;-69
2022/07/19 07:33:30;;;;;;;2.50;2.30;;;25.40;94.40;;;;;;483440;245;28819;-69
2022/07/19 07:35:31;;;;;;;2.63;2.47;;;25.50;94.30;;;;;;483344;245;28923;-69
2022/07/19 07:37:32;;;;;;;4.87;3.00;;;25.70;93.30;;;;;;483367;245;28788;-69
2022/07/19 07:39:33;;;;;;;3.23;3.03;;;26.10;93.00;;;;;;483436;245;28882;-71
2022/07/19 07:41:35;;;;;;;3.00;2.70;;;26.10;92.90;;;;;;483454;245;28853;-69
2022/07/19 07:43:36;;;;;;;2.87;2.67;;;26.30;92.70;;;;;;483461;245;28823;-69
2022/07/19 07:45:37;;;;;;;4.10;2.93;;;26.10;93.40;;;;;;483441;245;29362;-69
2022/07/19 07:47:38;;;;;;;3.17;2.97;;;25.80;93.80;;;;;;483383;245;29281;-69
2022/07/19 07:49:40;;;;;;;2.67;2.47;;;26.00;93.00;;;;;;483453;245;29281;-70
2022/07/19 07:51:41;;;;;;;2.57;2.37;;;26.00;93.60;;;;;;483444;246;29310;-69
2022/07/19 07:53:42;;;;;;;3.10;2.90;;;25.90;93.80;;;;;;483428;245;28807;-70
2022/07/19 07:55:43;;;;;;;3.13;2.80;;;25.80;94.00;;;;;;483447;245;28863;-69
2022/07/19 07:57:45;;;;;;;2.67;2.47;;;26.20;93.30;;;;;;483376;245;28891;-70
2022/07/19 07:59:46;;;;;;;2.47;2.33;;;26.00;93.40;;;;;;483453;246;28811;-73
2022/07/19 08:01:47;;;;;;;3.73;2.50;;;26.30;92.90;;;;;;483436;245;28791;-69
2022/07/19 08:03:48;;;;;;;2.70;2.50;;;26.40;92.40;;;;;;483465;245;28840;-70
2022/07/19 08:05:50;;;;;;;4.93;3.07;;;26.80;91.70;;;;;;483479;246;28685;-69
2022/07/19 08:07:51;;;;;;;5.60;2.70;;;26.90;91.80;;;;;;483316;245;29276;-70
2022/07/19 08:09:52;;;;;;;2.63;2.43;;;26.80;92.00;;;;;;483427;245;28808;-72
2022/07/19 08:11:53;;;;;;;2.80;2.60;;;26.60;92.50;;;;;;483429;245;29388;-70
2022/07/19 08:13:55;;;;;;;2.50;2.30;;;26.40;92.20;;;;;;483466;245;29280;-70
2022/07/19 08:15:56;;;;;;;3.00;2.80;;;26.60;91.60;;;;;;483472;245;29242;-69
2022/07/19 08:17:57;;;;;;;2.80;2.60;;;26.80;91.40;;;;;;483385;245;28784;-69
2022/07/19 08:19:59;;;;;;;3.13;2.50;;;27.10;91.10;;;;;;483443;245;28819;-73
2022/07/19 08:22:00;;;;;;;2.20;2.10;;;27.00;91.20;;;;;;483454;245;28886;-69
2022/07/19 08:24:01;;;;;;;2.73;2.53;;;26.70;91.30;;;;;;483501;245;28721;-70
2022/07/19 08:26:02;;;;;;;3.77;2.47;;;26.50;91.30;;;;;;483456;245;28780;-69
2022/07/19 08:28:03;;;;;;;2.30;2.20;;;26.80;91.00;;;;;;483420;245;28793;-69
2022/07/19 08:30:05;;;;;;;2.70;2.50;;;27.20;90.10;;;;;;483431;245;28811;-71
2022/07/19 08:32:06;;;;;;;2.43;2.30;;;27.20;89.50;;;;;;483439;245;28788;-70
2022/07/19 08:34:07;;;;;;;2.93;2.73;;;27.00;87.50;;;;;;483382;245;28903;-69
2022/07/19 08:36:09;;;;;;;2.97;2.73;;;27.50;88.50;;;;;;483131;245;29294;-69
2022/07/19 08:38:10;;;;;;;2.70;2.50;;;27.40;88.20;;;;;;483421;245;29279;-69
2022/07/19 08:40:11;;;;;;;2.80;2.60;;;27.80;87.30;;;;;;483389;245;29289;-71
2022/07/19 08:42:12;;;;;;;3.13;2.80;;;27.70;88.10;;;;;;483460;245;28877;-70
2022/07/19 08:44:13;;;;;;;2.80;2.57;;;27.90;85.90;;;;;;483386;245;28881;-70
2022/07/19 08:46:15;;;;;;;2.43;2.33;;;27.90;86.60;;;;;;483353;245;28775;-70
2022/07/19 08:48:17;;;;;;;2.27;2.07;;;27.70;85.90;;;;;;483444;245;28877;-69
2022/07/19 08:50:17;;;;;;;2.80;2.60;;;27.50;86.40;;;;;;483392;246;28810;-74
2022/07/19 08:52:18;;;;;;;2.90;2.70;;;27.70;86.30;;;;;;483436;245;28838;-70
2022/07/19 08:54:20;;;;;;;2.53;2.33;;;27.90;86.70;;;;;;483432;246;28824;-70
2022/07/19 08:58:40;;;;;;;2.87;2.40;;;27.60;87.10;;;;;;483440;246;29314;-71
2022/07/19 09:00:42;;;;;;;2.87;2.53;;;27.70;85.10;;;;;;483431;245;29279;-72
2022/07/19 09:02:43;;;;;;;2.97;2.77;;;27.50;85.30;;;;;;483443;245;28867;-70
2022/07/19 09:04:45;;;;;;;2.80;2.60;;;27.60;85.90;;;;;;483442;245;28798;-70
2022/07/19 09:06:45;;;;;;;4.60;2.60;;;28.20;86.20;;;;;;483329;246;28777;-69
2022/07/19 09:08:47;;;;;;;4.13;2.80;;;28.00;85.30;;;;;;483442;245;28795;-69
2022/07/19 09:13:07;;;;;;;3.07;2.77;;;28.10;82.90;;;;;;483439;246;28851;-69
2022/07/19 09:15:09;;;;;;;2.87;2.63;;;28.00;82.70;;;;;;483423;245;28932;-70
2022/07/19 09:17:20;;;;;;;2.90;2.70;;;27.90;83.00;;;;;;483372;245;29178;-73
2022/07/19 09:19:20;;;;;;;2.40;2.30;;;28.10;81.20;;;;;;483374;246;28902;-73
2022/07/19 09:21:21;;;;;;;2.80;2.60;;;28.20;81.10;;;;;;483422;245;28795;-70
2022/07/19 09:23:22;;;;;;;3.43;2.53;;;28.60;80.90;;;;;;483436;245;28804;-70
2022/07/19 09:25:24;;;;;;;2.67;2.40;;;28.40;81.90;;;;;;483439;245;28763;-69
2022/07/19 09:27:29;;;;;;;3.03;2.40;;;28.40;80.30;;;;;;483376;245;28793;-69
2022/07/19 09:29:29;;;;;;;3.08;2.40;;;28.70;78.60;;;;;;479736;245;36019;-70
2022/07/19 09:31:30;;;;;;;2.77;2.40;;;28.70;79.60;;;;;;483427;245;27499;-73
2022/07/19 09:33:31;;;;;;;3.53;2.77;;;28.80;77.80;;;;;;483447;245;28764;-70
2022/07/19 09:35:33;;;;;;;2.70;2.50;;;28.80;78.80;;;;;;483364;245;28831;-70
2022/07/19 09:37:35;;;;;;;4.33;2.40;;;28.70;79.60;;;;;;483383;245;28779;-69
2022/07/19 09:39:35;;;;;;;3.53;2.60;;;28.90;78.90;;;;;;483423;245;28804;-69
2022/07/19 09:41:36;;;;;;;2.63;2.43;;;28.80;77.80;;;;;;483408;245;28900;-73
2022/07/19 09:43:38;;;;;;;3.00;2.20;;;28.70;77.20;;;;;;483471;245;28781;-70
2022/07/19 09:45:39;;;;;;;2.40;2.10;;;28.70;78.40;;;;;;483397;245;29380;-70
2022/07/19 09:47:40;;;;;;;2.03;1.90;;;28.70;77.30;;;;;;483378;245;29254;-69
2022/07/19 09:49:41;;;;;;;1.97;1.87;;;28.90;77.30;;;;;;483422;246;29244;-70
2022/07/19 09:51:43;;;;;;;4.17;2.37;;;28.90;75.80;;;;;;483396;246;28908;-73
2022/07/19 09:53:44;;;;;;;2.67;2.47;;;29.30;74.60;;;;;;483454;245;28788;-69
2022/07/19 09:55:45;;;;;;;3.47;2.20;;;29.20;74.30;;;;;;483345;245;28786;-70
2022/07/19 09:57:47;;;;;;;4.03;2.60;;;29.20;74.90;;;;;;483299;245;28731;-70
2022/07/19 09:59:48;;;;;;;4.10;2.40;;;29.10;74.00;;;;;;483270;245;28809;-69
2022/07/19 10:01:49;;;;;;;2.47;2.27;;;29.20;74.10;;;;;;483447;245;28755;-72
2022/07/19 10:03:50;;;;;;;2.10;2.00;;;29.10;75.00;;;;;;483501;245;28703;-69
2022/07/19 10:05:51;;;;;;;2.27;2.10;;;29.00;74.00;;;;;;483479;246;28829;-70
2022/07/19 10:07:53;;;;;;;4.10;2.20;;;29.20;74.50;;;;;;483386;246;28785;-70
2022/07/19 10:09:54;;;;;;;2.77;2.07;;;29.00;75.00;;;;;;483443;245;29272;-70
2022/07/19 10:11:55;;;;;;;4.03;2.30;;;29.10;74.70;;;;;;483482;245;29309;-73
2022/07/19 10:13:56;;;;;;;2.13;2.00;;;29.20;75.60;;;;;;483470;245;29246;-69
2022/07/19 10:15:58;;;;;;;2.23;2.10;;;29.20;74.80;;;;;;483445;245;28817;-70
2022/07/19 10:17:59;;;;;;;4.40;2.63;;;29.20;76.00;;;;;;483381;245;28833;-69
2022/07/19 10:20:00;;;;;;;2.07;1.97;;;29.40;74.70;;;;;;483440;245;28804;-70
2022/07/19 10:22:02;;;;;;;3.53;2.20;;;29.70;74.50;;;;;;483474;245;28952;-73
2022/07/19 10:24:03;;;;;;;5.03;2.07;;;29.60;72.40;;;;;;483466;245;28848;-70
2022/07/19 10:26:04;;;;;;;2.20;2.00;;;29.50;73.30;;;;;;483409;245;28907;-73
2022/07/19 10:28:05;;;;;;;2.70;2.17;;;29.40;72.40;;;;;;483437;246;28862;-69
2022/07/19 10:30:07;;;;;;;2.70;2.10;;;29.80;70.20;;;;;;483447;245;28802;-69
2022/07/19 10:32:08;;;;;;;2.40;2.20;;;30.20;70.30;;;;;;483464;245;28933;-74
2022/07/19 10:34:09;;;;;;;4.20;2.37;;;30.10;69.20;;;;;;483408;245;29422;-69
2022/07/19 10:36:10;;;;;;;5.13;2.80;;;30.20;69.70;;;;;;483217;245;29286;-70